General Aviation Weather

Text Reports

Enter one or more of the following location identifiers separated by a space:

Zip Code, Four-Character ICAO or Three-Character IATA airport codes.

METAR - Aviation Routine Weather Report
KRUG - Rugby, North Dakota
Updated at 3:55 PM GMT on August 26, 2015 (10:55 AM CDT):
METAR KRUG 261555Z AUTO 17011G16KT 10SM CLR 20/12 A3008 RMK AO2
TAF - Terminal Area Forecast
KRUG - Rugby, North Dakota
Updated at 3:55 PM GMT on August 26, 2015 (10:55 AM CDT):
No TAF is currently available for this location.
Decoded:
No decoded TAF is available.
PIREP - Pilot Weather Report
KRUG - Rugby, North Dakota
Updated at 3:55 PM GMT on August 26, 2015 (10:55 AM CDT):
No PIREP is currently available for this location.
AIRMET - Airmens Meteorological Information
KRUG - Rugby, North Dakota
Updated at 3:55 PM GMT on August 26, 2015 (10:55 AM CDT):
No AIRMET is currently available for this location.
SIGMET - Significant Meteorological Information
KRUG - Rugby, North Dakota
Updated at 3:55 PM GMT on August 26, 2015 (10:55 AM CDT):
No SIGMET is currently available for this location.
NOTAM - Notice to Airmen
KRUG - Rugby, North Dakota
Updated at 3:55 PM GMT on August 26, 2015 (10:55 AM CDT):
No NOTAM is currently available for this location.
Forecast Area
KRUG - Rugby, North Dakota
Updated at 3:55 PM GMT on August 26, 2015 (10:55 AM CDT):
No NOTAM is currently available for this location.
Aviation Weather Maps